sensor_id;sensor_type;location;lat;lon;timestamp;pressure;altitude;pressure_sealevel;temperature;humidity
60337;BME280;46978;50.288;28.624;2023-07-31T00:00:44;98376.16;;;16.95;100.00
60337;BME280;46978;50.288;28.624;2023-07-31T00:01:46;98373.45;;;16.96;100.00
60337;BME280;46978;50.288;28.624;2023-07-31T00:02:48;98374.28;;;16.97;100.00
60337;BME280;46978;50.288;28.624;2023-07-31T00:03:50;98371.57;;;16.98;100.00
60337;BME280;46978;50.288;28.624;2023-07-31T00:04:51;98379.34;;;17.00;100.00
60337;BME280;46978;50.288;28.624;2023-07-31T00:05:53;98379.34;;;17.00;100.00
60337;BME280;46978;50.288;28.624;2023-07-31T00:06:55;98379.34;;;17.00;100.00
60337;BME280;46978;50.288;28.624;2023-07-31T00:07:56;98381.03;;;17.01;100.00
60337;BME280;46978;50.288;28.624;2023-07-31T00:08:58;98381.87;;;17.01;100.00
60337;BME280;46978;50.288;28.624;2023-07-31T00:09:59;98380.95;;;17.02;100.00
60337;BME280;46978;50.288;28.624;2023-07-31T00:11:01;98385.23;;;17.03;100.00
60337;BME280;46978;50.288;28.624;2023-07-31T00:12:04;98391.34;;;17.04;100.00
60337;BME280;46978;50.288;28.624;2023-07-31T00:13:05;98387.76;;;17.05;100.00
60337;BME280;46978;50.288;28.624;2023-07-31T00:14:07;98385.91;;;17.07;100.00
60337;BME280;46978;50.288;28.624;2023-07-31T00:15:09;98390.20;;;17.08;100.00
60337;BME280;46978;50.288;28.624;2023-07-31T00:16:13;98385.72;;;17.10;100.00
60337;BME280;46978;50.288;28.624;2023-07-31T00:17:16;98391.05;;;17.09;100.00
60337;BME280;46978;50.288;28.624;2023-07-31T00:18:18;98392.72;;;17.10;100.00
60337;BME280;46978;50.288;28.624;2023-07-31T00:19:20;98390.01;;;17.11;100.00
60337;BME280;46978;50.288;28.624;2023-07-31T00:20:21;98397.04;;;17.11;100.00
60337;BME280;46978;50.288;28.624;2023-07-31T00:21:23;98390.97;;;17.10;100.00
60337;BME280;46978;50.288;28.624;2023-07-31T00:22:25;98398.73;;;17.12;100.00
60337;BME280;46978;50.288;28.624;2023-07-31T00:23:27;98393.49;;;17.12;100.00
60337;BME280;46978;50.288;28.624;2023-07-31T00:24:28;98403.02;;;17.13;100.00
60337;BME280;46978;50.288;28.624;2023-07-31T00:25:30;98392.63;;;17.11;100.00
60337;BME280;46978;50.288;28.624;2023-07-31T00:26:32;98396.95;;;17.12;100.00
60337;BME280;46978;50.288;28.624;2023-07-31T00:27:34;98398.61;;;17.13;100.00
60337;BME280;46978;50.288;28.624;2023-07-31T00:28:35;98391.61;;;17.14;100.00
60337;BME280;46978;50.288;28.624;2023-07-31T00:29:37;98388.13;;;17.13;100.00
60337;BME280;46978;50.288;28.624;2023-07-31T00:30:39;98387.94;;;17.16;100.00
60337;BME280;46978;50.288;28.624;2023-07-31T00:31:41;98387.11;;;17.16;100.00
60337;BME280;46978;50.288;28.624;2023-07-31T00:32:43;98384.48;;;17.16;100.00
60337;BME280;46978;50.288;28.624;2023-07-31T00:33:44;98385.41;;;17.15;100.00
60337;BME280;46978;50.288;28.624;2023-07-31T00:34:46;98385.41;;;17.15;100.00
60337;BME280;46978;50.288;28.624;2023-07-31T00:35:48;98384.67;;;17.13;100.00
60337;BME280;46978;50.288;28.624;2023-07-31T00:36:50;98388.13;;;17.13;100.00
60337;BME280;46978;50.288;28.624;2023-07-31T00:37:52;98384.67;;;17.13;100.00
60337;BME280;46978;50.288;28.624;2023-07-31T00:38:53;98380.39;;;17.12;100.00
60337;BME280;46978;50.288;28.624;2023-07-31T00:39:55;98389.91;;;17.13;100.00
60337;BME280;46978;50.288;28.624;2023-07-31T00:40:57;98385.63;;;17.12;100.00
60337;BME280;46978;50.288;28.624;2023-07-31T00:41:58;98386.55;;;17.11;100.00
60337;BME280;46978;50.288;28.624;2023-07-31T00:43:00;98390.88;;;17.12;100.00
60337;BME280;46978;50.288;28.624;2023-07-31T00:44:02;98390.01;;;17.11;100.00
60337;BME280;46978;50.288;28.624;2023-07-31T00:45:04;98388.25;;;17.12;100.00
60337;BME280;46978;50.288;28.624;2023-07-31T00:46:07;98380.27;;;17.13;100.00
60337;BME280;46978;50.288;28.624;2023-07-31T00:47:08;98380.27;;;17.13;100.00
60337;BME280;46978;50.288;28.624;2023-07-31T00:48:10;98382.79;;;17.15;100.00
60337;BME280;46978;50.288;28.624;2023-07-31T00:49:12;98381.86;;;17.16;100.00
60337;BME280;46978;50.288;28.624;2023-07-31T00:50:14;98379.24;;;17.16;100.00
60337;BME280;46978;50.288;28.624;2023-07-31T00:51:16;98376.81;;;17.13;100.00
60337;BME280;46978;50.288;28.624;2023-07-31T00:52:19;98388.03;;;17.15;100.00
60337;BME280;46978;50.288;28.624;2023-07-31T00:53:20;98377.55;;;17.15;100.00
60337;BME280;46978;50.288;28.624;2023-07-31T00:54:23;98378.50;;;17.14;100.00
60337;BME280;46978;50.288;28.624;2023-07-31T00:55:24;98388.98;;;17.14;100.00
60337;BME280;46978;50.288;28.624;2023-07-31T00:56:27;98380.27;;;17.13;100.00
60337;BME280;46978;50.288;28.624;2023-07-31T00:57:31;98378.50;;;17.14;100.00
60337;BME280;46978;50.288;28.624;2023-07-31T00:58:33;98375.02;;;17.13;100.00
60337;BME280;46978;50.288;28.624;2023-07-31T00:59:35;98373.36;;;17.12;100.00
60337;BME280;46978;50.288;28.624;2023-07-31T01:00:36;98372.40;;;17.13;100.00
60337;BME280;46978;50.288;28.624;2023-07-31T01:01:38;98375.02;;;17.13;100.00
60337;BME280;46978;50.288;28.624;2023-07-31T01:02:41;98376.81;;;17.13;100.00
60337;BME280;46978;50.288;28.624;2023-07-31T01:03:43;98371.66;;;17.11;100.00
60337;BME280;46978;50.288;28.624;2023-07-31T01:04:46;98375.23;;;17.10;100.00
60337;BME280;46978;50.288;28.624;2023-07-31T01:05:59;98376.07;;;17.11;100.00
60337;BME280;46978;50.288;28.624;2023-07-31T01:07:11;98378.69;;;17.11;100.00
60337;BME280;46978;50.288;28.624;2023-07-31T01:08:21;98380.39;;;17.12;100.00
60337;BME280;46978;50.288;28.624;2023-07-31T01:09:43;98385.63;;;17.12;100.00
60337;BME280;46978;50.288;28.624;2023-07-31T01:10:54;98383.94;;;17.11;100.00
60337;BME280;46978;50.288;28.624;2023-07-31T01:11:56;98382.14;;;17.11;100.00
60337;BME280;46978;50.288;28.624;2023-07-31T01:12:59;98379.61;;;17.10;100.00
60337;BME280;46978;50.288;28.624;2023-07-31T01:14:01;98390.10;;;17.10;100.00
60337;BME280;46978;50.288;28.624;2023-07-31T01:15:08;98393.59;;;17.10;100.00
60337;BME280;46978;50.288;28.624;2023-07-31T01:16:10;98392.81;;;17.08;100.00
60337;BME280;46978;50.288;28.624;2023-07-31T01:17:11;98397.23;;;17.08;100.00
60337;BME280;46978;50.288;28.624;2023-07-31T01:18:13;98397.23;;;17.08;100.00
60337;BME280;46978;50.288;28.624;2023-07-31T01:19:18;98400.67;;;17.08;100.00
60337;BME280;46978;50.288;28.624;2023-07-31T01:20:24;98395.44;;;17.08;100.00
60337;BME280;46978;50.288;28.624;2023-07-31T01:22:16;98402.47;;;17.08;100.00
60337;BME280;46978;50.288;28.624;2023-07-31T01:27:10;98398.05;;;17.08;100.00
60337;BME280;46978;50.288;28.624;2023-07-31T01:28:19;98397.13;;;17.09;100.00
60337;BME280;46978;50.288;28.624;2023-07-31T01:29:38;98400.77;;;17.07;100.00
60337;BME280;46978;50.288;28.624;2023-07-31T01:30:47;98394.61;;;17.08;100.00
60337;BME280;46978;50.288;28.624;2023-07-31T01:31:50;98389.36;;;17.08;100.00
60337;BME280;46978;50.288;28.624;2023-07-31T01:32:54;98391.98;;;17.08;100.00
60337;BME280;46978;50.288;28.624;2023-07-31T01:34:00;98391.15;;;17.07;100.00
60337;BME280;46978;50.288;28.624;2023-07-31T01:35:02;98391.15;;;17.07;100.00
60337;BME280;46978;50.288;28.624;2023-07-31T01:36:05;98398.92;;;17.09;100.00
60337;BME280;46978;50.288;28.624;2023-07-31T01:37:06;98397.96;;;17.10;100.00
60337;BME280;46978;50.288;28.624;2023-07-31T01:38:08;98393.67;;;17.09;100.00
60337;BME280;46978;50.288;28.624;2023-07-31T01:39:10;98401.45;;;17.10;100.00
60337;BME280;46978;50.288;28.624;2023-07-31T01:40:12;98398.73;;;17.12;100.00
60337;BME280;46978;50.288;28.624;2023-07-31T01:41:16;98398.73;;;17.12;100.00
60337;BME280;46978;50.288;28.624;2023-07-31T01:42:18;98399.47;;;17.14;100.00
60337;BME280;46978;50.288;28.624;2023-07-31T01:43:20;98394.33;;;17.12;100.00
60337;BME280;46978;50.288;28.624;2023-07-31T01:44:22;98402.09;;;17.14;100.00
60337;BME280;46978;50.288;28.624;2023-07-31T01:45:23;98396.86;;;17.14;100.00
60337;BME280;46978;50.288;28.624;2023-07-31T01:46:25;98389.83;;;17.14;100.00
60337;BME280;46978;50.288;28.624;2023-07-31T01:47:27;98394.97;;;17.16;100.00
60337;BME280;46978;50.288;28.624;2023-07-31T01:48:29;98392.26;;;17.17;100.00
60337;BME280;46978;50.288;28.624;2023-07-31T01:49:30;98387.11;;;17.16;100.00
60337;BME280;46978;50.288;28.624;2023-07-31T01:50:32;98387.20;;;17.14;100.00
60337;BME280;46978;50.288;28.624;2023-07-31T01:51:34;98387.20;;;17.14;100.00
60337;BME280;46978;50.288;28.624;2023-07-31T01:52:35;98388.98;;;17.14;100.00
60337;BME280;46978;50.288;28.624;2023-07-31T01:53:37;98389.91;;;17.13;100.00
60337;BME280;46978;50.288;28.624;2023-07-31T01:54:39;98391.70;;;17.12;100.00
60337;BME280;46978;50.288;28.624;2023-07-31T01:55:41;98389.08;;;17.12;100.00
60337;BME280;46978;50.288;28.624;2023-07-31T01:56:42;98396.11;;;17.12;100.00
60337;BME280;46978;50.288;28.624;2023-07-31T01:57:44;98392.63;;;17.11;100.00
60337;BME280;46978;50.288;28.624;2023-07-31T01:58:46;98394.42;;;17.11;100.00
60337;BME280;46978;50.288;28.624;2023-07-31T01:59:47;98392.72;;;17.10;100.00
60337;BME280;46978;50.288;28.624;2023-07-31T02:00:49;98404.16;;;17.09;100.00
60337;BME280;46978;50.288;28.624;2023-07-31T02:01:51;98403.30;;;17.08;100.00
60337;BME280;46978;50.288;28.624;2023-07-31T02:02:52;98406.02;;;17.07;100.00
60337;BME280;46978;50.288;28.624;2023-07-31T02:03:54;98406.97;;;17.06;100.00
60337;BME280;46978;50.288;28.624;2023-07-31T02:04:56;98402.47;;;17.08;100.00
60337;BME280;46978;50.288;28.624;2023-07-31T02:05:57;98405.92;;;17.08;100.00
60337;BME280;46978;50.288;28.624;2023-07-31T02:06:59;98402.38;;;17.09;100.00
60337;BME280;46978;50.288;28.624;2023-07-31T02:08:01;98396.30;;;17.09;100.00
60337;BME280;46978;50.288;28.624;2023-07-31T02:09:03;98402.38;;;17.09;100.00
60337;BME280;46978;50.288;28.624;2023-07-31T02:10:06;98403.20;;;17.10;100.00
60337;BME280;46978;50.288;28.624;2023-07-31T02:11:08;98404.99;;;17.09;100.00
60337;BME280;46978;50.288;28.624;2023-07-31T02:12:10;98400.67;;;17.08;100.00
60337;BME280;46978;50.288;28.624;2023-07-31T02:13:11;98400.59;;;17.10;100.00
60337;BME280;46978;50.288;28.624;2023-07-31T02:14:13;98406.69;;;17.10;100.00
60337;BME280;46978;50.288;28.624;2023-07-31T02:15:15;98402.28;;;17.11;100.00
60337;BME280;46978;50.288;28.624;2023-07-31T02:16:17;98403.98;;;17.12;100.00
60337;BME280;46978;50.288;28.624;2023-07-31T02:17:18;98403.11;;;17.11;100.00
60337;BME280;46978;50.288;28.624;2023-07-31T02:18:20;98400.31;;;17.14;100.00
60337;BME280;46978;50.288;28.624;2023-07-31T02:19:21;98401.14;;;17.15;100.00
60337;BME280;46978;50.288;28.624;2023-07-31T02:20:23;98398.52;;;17.15;100.00
60337;BME280;46978;50.288;28.624;2023-07-31T02:21:25;98400.49;;;17.11;100.00
60337;BME280;46978;50.288;28.624;2023-07-31T02:22:27;98403.98;;;17.12;100.00
60337;BME280;46978;50.288;28.624;2023-07-31T02:23:28;98408.36;;;17.11;100.00
60337;BME280;46978;50.288;28.624;2023-07-31T02:24:30;98407.52;;;17.11;100.00
60337;BME280;46978;50.288;28.624;2023-07-31T02:25:31;98405.83;;;17.10;100.00
60337;BME280;46978;50.288;28.624;2023-07-31T02:26:33;98411.07;;;17.10;100.00
60337;BME280;46978;50.288;28.624;2023-07-31T02:27:35;98398.92;;;17.09;100.00
60337;BME280;46978;50.288;28.624;2023-07-31T02:28:36;98404.16;;;17.09;100.00
60337;BME280;46978;50.288;28.624;2023-07-31T02:29:38;98393.00;;;17.05;100.00
60337;BME280;46978;50.288;28.624;2023-07-31T02:30:46;98393.09;;;17.03;100.00
60337;BME280;46978;50.288;28.624;2023-07-31T02:31:45;98401.91;;;17.02;100.00
60337;BME280;46978;50.288;28.624;2023-07-31T02:32:47;98393.28;;;17.00;100.00
60337;BME280;46978;50.288;28.624;2023-07-31T02:33:49;98396.86;;;16.99;100.00
60337;BME280;46978;50.288;28.624;2023-07-31T02:34:51;98398.52;;;17.00;100.00
60337;BME280;46978;50.288;28.624;2023-07-31T02:35:52;98399.56;;;16.98;100.00
60337;BME280;46978;50.288;28.624;2023-07-31T02:36:54;98398.70;;;16.97;100.00
60337;BME280;46978;50.288;28.624;2023-07-31T02:37:56;98403.20;;;16.95;100.00
60337;BME280;46978;50.288;28.624;2023-07-31T02:38:58;98394.60;;;16.93;100.00
60337;BME280;46978;50.288;28.624;2023-07-31T02:39:59;98394.60;;;16.93;100.00
60337;BME280;46978;50.288;28.624;2023-07-31T02:41:01;98395.62;;;16.91;100.00
60337;BME280;46978;50.288;28.624;2023-07-31T02:42:03;98399.06;;;16.91;100.00
60337;BME280;46978;50.288;28.624;2023-07-31T02:43:05;98404.31;;;16.91;100.00
60337;BME280;46978;50.288;28.624;2023-07-31T02:44:07;98398.14;;;16.92;100.00
60337;BME280;46978;50.288;28.624;2023-07-31T02:45:09;98405.17;;;16.92;100.00
60337;BME280;46978;50.288;28.624;2023-07-31T02:46:11;98398.14;;;16.92;100.00
60337;BME280;46978;50.288;28.624;2023-07-31T02:47:13;98404.22;;;16.93;100.00
60337;BME280;46978;50.288;28.624;2023-07-31T02:48:14;98403.30;;;16.94;100.00
60337;BME280;46978;50.288;28.624;2023-07-31T02:49:16;98404.12;;;16.94;100.00
60337;BME280;46978;50.288;28.624;2023-07-31T02:50:18;98402.28;;;16.96;100.00
60337;BME280;46978;50.288;28.624;2023-07-31T02:51:20;98397.69;;;17.00;100.00
60337;BME280;46978;50.288;28.624;2023-07-31T02:52:21;98397.69;;;17.00;100.00
60337;BME280;46978;50.288;28.624;2023-07-31T02:53:23;98402.00;;;17.01;100.00
60337;BME280;46978;50.288;28.624;2023-07-31T02:54:25;98400.95;;;17.03;100.00
60337;BME280;46978;50.288;28.624;2023-07-31T02:55:26;98401.81;;;17.04;100.00
60337;BME280;46978;50.288;28.624;2023-07-31T02:56:29;98400.86;;;17.05;100.00
60337;BME280;46978;50.288;28.624;2023-07-31T02:57:30;98397.41;;;17.05;100.00
60337;BME280;46978;50.288;28.624;2023-07-31T02:58:32;98397.41;;;17.05;100.00
60337;BME280;46978;50.288;28.624;2023-07-31T02:59:34;98401.91;;;17.02;100.00
60337;BME280;46978;50.288;28.624;2023-07-31T03:00:36;98395.80;;;17.02;100.00
60337;BME280;46978;50.288;28.624;2023-07-31T03:01:39;98398.52;;;17.00;100.00
60337;BME280;46978;50.288;28.624;2023-07-31T03:02:41;98394.97;;;17.01;100.00
60337;BME280;46978;50.288;28.624;2023-07-31T03:03:43;98396.77;;;17.01;100.00
60337;BME280;46978;50.288;28.624;2023-07-31T03:04:44;98391.52;;;17.01;100.00
60337;BME280;46978;50.288;28.624;2023-07-31T03:05:46;98395.80;;;17.02;100.00
60337;BME280;46978;50.288;28.624;2023-07-31T03:06:48;98388.72;;;17.04;100.00
60337;BME280;46978;50.288;28.624;2023-07-31T03:07:49;98391.15;;;17.07;100.00
60337;BME280;46978;50.288;28.624;2023-07-31T03:08:51;98393.67;;;17.09;100.00
60337;BME280;46978;50.288;28.624;2023-07-31T03:09:52;98398.05;;;17.08;100.00
60337;BME280;46978;50.288;28.624;2023-07-31T03:10:56;98391.98;;;17.08;100.00
60337;BME280;46978;50.288;28.624;2023-07-31T03:11:58;98397.23;;;17.08;100.00
60337;BME280;46978;50.288;28.624;2023-07-31T03:13:00;98401.64;;;17.07;100.00
60337;BME280;46978;50.288;28.624;2023-07-31T03:14:01;98398.15;;;17.07;100.00
60337;BME280;46978;50.288;28.624;2023-07-31T03:15:04;98398.92;;;17.09;100.00
60337;BME280;46978;50.288;28.624;2023-07-31T03:16:06;98399.75;;;17.09;100.00
60337;BME280;46978;50.288;28.624;2023-07-31T03:17:08;98403.98;;;17.12;100.00
60337;BME280;46978;50.288;28.624;2023-07-31T03:18:10;98401.14;;;17.15;100.00
60337;BME280;46978;50.288;28.624;2023-07-31T03:19:11;98397.59;;;17.16;100.00
60337;BME280;46978;50.288;28.624;2023-07-31T03:20:13;98399.29;;;17.17;100.00
60337;BME280;46978;50.288;28.624;2023-07-31T03:21:15;98393.00;;;17.19;100.00
60337;BME280;46978;50.288;28.624;2023-07-31T03:22:17;98397.31;;;17.20;100.00
60337;BME280;46978;50.288;28.624;2023-07-31T03:23:19;98401.72;;;17.20;100.00
60337;BME280;46978;50.288;28.624;2023-07-31T03:24:20;98391.14;;;17.22;100.00
60337;BME280;46978;50.288;28.624;2023-07-31T03:25:22;98389.27;;;17.24;100.00
60337;BME280;46978;50.288;28.624;2023-07-31T03:26:24;98399.66;;;17.25;100.00
60337;BME280;46978;50.288;28.624;2023-07-31T03:27:25;98397.87;;;17.26;100.00
60337;BME280;46978;50.288;28.624;2023-07-31T03:28:27;98391.70;;;17.27;100.00
60337;BME280;46978;50.288;28.624;2023-07-31T03:29:29;98399.56;;;17.27;100.00
60337;BME280;46978;50.288;28.624;2023-07-31T03:30:30;98396.11;;;17.26;100.00
60337;BME280;46978;50.288;28.624;2023-07-31T03:31:32;98399.56;;;17.27;100.00
60337;BME280;46978;50.288;28.624;2023-07-31T03:32:34;98397.03;;;17.25;100.00
60337;BME280;46978;50.288;28.624;2023-07-31T03:33:35;98397.03;;;17.25;100.00
60337;BME280;46978;50.288;28.624;2023-07-31T03:34:37;98399.47;;;17.28;100.00
60337;BME280;46978;50.288;28.624;2023-07-31T03:35:39;98403.78;;;17.29;100.00
60337;BME280;46978;50.288;28.624;2023-07-31T03:36:41;98408.08;;;17.30;100.00
60337;BME280;46978;50.288;28.624;2023-07-31T03:37:43;98408.08;;;17.30;100.00
60337;BME280;46978;50.288;28.624;2023-07-31T03:38:46;98404.53;;;17.31;100.00
60337;BME280;46978;50.288;28.624;2023-07-31T03:39:48;98411.47;;;17.32;100.00
60337;BME280;46978;50.288;28.624;2023-07-31T03:40:49;98406.22;;;17.32;100.00
60337;BME280;46978;50.288;28.624;2023-07-31T03:41:51;98405.27;;;17.33;100.00
60337;BME280;46978;50.288;28.624;2023-07-31T03:42:53;98409.67;;;17.33;100.00
60337;BME280;46978;50.288;28.624;2023-07-31T03:43:54;98416.62;;;17.34;100.00
60337;BME280;46978;50.288;28.624;2023-07-31T03:44:56;98418.38;;;17.33;100.00
60337;BME280;46978;50.288;28.624;2023-07-31T03:45:58;98421.77;;;17.35;100.00
60337;BME280;46978;50.288;28.624;2023-07-31T03:47:00;98424.30;;;17.37;100.00
60337;BME280;46978;50.288;28.624;2023-07-31T03:48:02;98419.79;;;17.39;100.00
60337;BME280;46978;50.288;28.624;2023-07-31T03:49:04;98420.53;;;17.41;100.00
60337;BME280;46978;50.288;28.624;2023-07-31T03:50:06;98424.75;;;17.44;100.00
60337;BME280;46978;50.288;28.624;2023-07-31T03:51:08;98420.25;;;17.46;100.00
60337;BME280;46978;50.288;28.624;2023-07-31T03:52:10;98423.64;;;17.48;100.00
60337;BME280;46978;50.288;28.624;2023-07-31T03:53:11;98421.75;;;17.50;100.00
60337;BME280;46978;50.288;28.624;2023-07-31T03:54:13;98422.49;;;17.52;100.00
60337;BME280;46978;50.288;28.624;2023-07-31T03:55:15;98415.30;;;17.55;100.00
60337;BME280;46978;50.288;28.624;2023-07-31T03:56:17;98416.86;;;17.58;100.00
60337;BME280;46978;50.288;28.624;2023-07-31T03:57:18;98421.09;;;17.61;100.00
60337;BME280;46978;50.288;28.624;2023-07-31T03:58:20;98419.30;;;17.61;100.00
60337;BME280;46978;50.288;28.624;2023-07-31T03:59:22;98420.06;;;17.63;100.00
60337;BME280;46978;50.288;28.624;2023-07-31T04:00:24;98419.88;;;17.66;100.00
60337;BME280;46978;50.288;28.624;2023-07-31T04:01:26;98419.78;;;17.68;100.00
60337;BME280;46978;50.288;28.624;2023-07-31T04:02:28;98415.27;;;17.70;100.00
60337;BME280;46978;50.288;28.624;2023-07-31T04:03:30;98411.72;;;17.71;100.00
60337;BME280;46978;50.288;28.624;2023-07-31T04:04:32;98415.08;;;17.73;100.00
60337;BME280;46978;50.288;28.624;2023-07-31T04:05:37;98422.75;;;17.76;100.00
60337;BME280;46978;50.288;28.624;2023-07-31T04:06:39;98423.49;;;17.78;100.00
60337;BME280;46978;50.288;28.624;2023-07-31T04:07:40;98419.01;;;17.80;100.00
60337;BME280;46978;50.288;28.624;2023-07-31T04:08:42;98423.97;;;17.85;100.00
60337;BME280;46978;50.288;28.624;2023-07-31T04:09:44;98419.39;;;17.88;100.00
60337;BME280;46978;50.288;28.624;2023-07-31T04:10:45;98420.03;;;17.92;100.00
60337;BME280;46978;50.288;28.624;2023-07-31T04:11:47;98420.70;;;17.96;100.00
60337;BME280;46978;50.288;28.624;2023-07-31T04:12:49;98416.91;;;18.00;100.00
60337;BME280;46978;50.288;28.624;2023-07-31T04:13:51;98415.05;;;18.02;100.00
60337;BME280;46978;50.288;28.624;2023-07-31T04:14:52;98420.84;;;18.07;100.00
60337;BME280;46978;50.288;28.624;2023-07-31T04:15:54;98414.56;;;18.09;100.00
60337;BME280;46978;50.288;28.624;2023-07-31T04:17:17;98423.91;;;18.14;100.00
60337;BME280;46978;50.288;28.624;2023-07-31T04:18:19;98421.38;;;18.12;100.00
60337;BME280;46978;50.288;28.624;2023-07-31T04:19:21;98423.91;;;18.14;100.00
60337;BME280;46978;50.288;28.624;2023-07-31T04:20:23;98422.14;;;18.14;100.00
60337;BME280;46978;50.288;28.624;2023-07-31T04:21:24;98422.78;;;18.18;100.00
60337;BME280;46978;50.288;28.624;2023-07-31T04:22:26;98430.45;;;18.21;100.00
60337;BME280;46978;50.288;28.624;2023-07-31T04:23:28;98419.76;;;18.24;100.00
60337;BME280;46978;50.288;28.624;2023-07-31T04:24:29;98425.55;;;18.29;100.00
60337;BME280;46978;50.288;28.624;2023-07-31T04:25:31;98413.08;;;18.33;100.00
60337;BME280;46978;50.288;28.624;2023-07-31T04:26:33;98418.03;;;18.37;100.00
60337;BME280;46978;50.288;28.624;2023-07-31T04:27:35;98414.23;;;18.41;100.00
60337;BME280;46978;50.288;28.624;2023-07-31T04:28:36;98419.19;;;18.46;100.00
60337;BME280;46978;50.288;28.624;2023-07-31T04:29:38;98415.53;;;18.49;100.00
60337;BME280;46978;50.288;28.624;2023-07-31T04:30:40;98417.09;;;18.51;100.00
60337;BME280;46978;50.288;28.624;2023-07-31T04:31:41;98416.05;;;18.54;100.00
60337;BME280;46978;50.288;28.624;2023-07-31T04:32:43;98419.41;;;18.56;100.00
60337;BME280;46978;50.288;28.624;2023-07-31T04:33:45;98424.36;;;18.60;100.00
60337;BME280;46978;50.288;28.624;2023-07-31T04:34:47;98420.70;;;18.63;100.00
60337;BME280;46978;50.288;28.624;2023-07-31T04:35:53;98424.16;;;18.63;100.00
60337;BME280;46978;50.288;28.624;2023-07-31T04:36:55;98419.56;;;18.67;100.00
60337;BME280;46978;50.288;28.624;2023-07-31T04:37:57;98423.55;;;18.73;100.00
60337;BME280;46978;50.288;28.624;2023-07-31T04:38:59;98422.30;;;18.78;100.00
60337;BME280;46978;50.288;28.624;2023-07-31T04:40:01;98425.45;;;18.84;100.00
60337;BME280;46978;50.288;28.624;2023-07-31T04:41:02;98412.03;;;18.88;100.00
60337;BME280;46978;50.288;28.624;2023-07-31T04:42:04;98417.74;;;18.95;100.00
60337;BME280;46978;50.288;28.624;2023-07-31T04:43:06;98422.58;;;19.01;100.00
60337;BME280;46978;50.288;28.624;2023-07-31T04:44:07;98419.64;;;19.06;100.00
60337;BME280;46978;50.288;28.624;2023-07-31T04:45:09;98420.16;;;19.11;100.00
60337;BME280;46978;50.288;28.624;2023-07-31T04:46:12;98420.67;;;19.16;100.00
60337;BME280;46978;50.288;28.624;2023-07-31T04:47:14;98423.75;;;19.23;100.00
60337;BME280;46978;50.288;28.624;2023-07-31T04:48:16;98420.69;;;19.29;100.00
60337;BME280;46978;50.288;28.624;2023-07-31T04:49:17;98415.01;;;19.35;100.00
60337;BME280;46978;50.288;28.624;2023-07-31T04:50:19;98425.83;;;19.43;100.00
60337;BME280;46978;50.288;28.624;2023-07-31T04:51:21;98424.46;;;19.50;100.00
60337;BME280;46978;50.288;28.624;2023-07-31T04:52:23;98423.06;;;19.58;100.00
60337;BME280;46978;50.288;28.624;2023-07-31T04:53:24;98426.23;;;19.63;99.48
60337;BME280;46978;50.288;28.624;2023-07-31T04:54:26;98423.28;;;19.67;99.17
60337;BME280;46978;50.288;28.624;2023-07-31T04:55:28;98423.67;;;19.74;98.89
60337;BME280;46978;50.288;28.624;2023-07-31T04:56:29;98421.58;;;19.79;98.26
60337;BME280;46978;50.288;28.624;2023-07-31T04:57:31;98423.77;;;19.85;98.08
60337;BME280;46978;50.288;28.624;2023-07-31T04:58:33;98423.44;;;19.90;97.46
60337;BME280;46978;50.288;28.624;2023-07-31T04:59:34;98424.80;;;19.96;97.21
60337;BME280;46978;50.288;28.624;2023-07-31T05:00:36;98422.67;;;20.01;97.03
60337;BME280;46978;50.288;28.624;2023-07-31T05:01:39;98429.19;;;20.08;96.95
60337;BME280;46978;50.288;28.624;2023-07-31T05:02:40;98426.94;;;20.15;96.47
60337;BME280;46978;50.288;28.624;2023-07-31T05:03:42;98424.08;;;20.18;95.87
60337;BME280;46978;50.288;28.624;2023-07-31T05:04:44;98428.08;;;20.23;95.62
60337;BME280;46978;50.288;28.624;2023-07-31T05:05:45;98424.58;;;20.23;94.66
60337;BME280;46978;50.288;28.624;2023-07-31T05:06:47;98436.09;;;20.22;94.25
60337;BME280;46978;50.288;28.624;2023-07-31T05:07:49;98427.21;;;20.23;94.76
60337;BME280;46978;50.288;28.624;2023-07-31T05:08:50;98427.96;;;20.25;94.82
60337;BME280;46978;50.288;28.624;2023-07-31T05:09:52;98434.78;;;20.28;94.54
60337;BME280;46978;50.288;28.624;2023-07-31T05:10:54;98434.67;;;20.29;94.51
60337;BME280;46978;50.288;28.624;2023-07-31T05:11:56;98430.98;;;20.32;94.16
60337;BME280;46978;50.288;28.624;2023-07-31T05:12:57;98437.08;;;20.32;93.83
60337;BME280;46978;50.288;28.624;2023-07-31T05:13:59;98434.33;;;20.34;93.65
60337;BME280;46978;50.288;28.624;2023-07-31T05:15:00;98438.66;;;20.35;93.14
60337;BME280;46978;50.288;28.624;2023-07-31T05:16:03;98433.61;;;20.32;93.01
60337;BME280;46978;50.288;28.624;2023-07-31T05:17:05;98437.83;;;20.34;93.27
60337;BME280;46978;50.288;28.624;2023-07-31T05:18:07;98439.27;;;20.38;93.70
60337;BME280;46978;50.288;28.624;2023-07-31T05:19:08;98443.25;;;20.44;93.82
60337;BME280;46978;50.288;28.624;2023-07-31T05:20:11;98442.80;;;20.50;93.61
60337;BME280;46978;50.288;28.624;2023-07-31T05:21:32;98441.52;;;20.56;93.36
60337;BME280;46978;50.288;28.624;2023-07-31T05:22:34;98434.93;;;20.62;92.96
60337;BME280;46978;50.288;28.624;2023-07-31T05:23:36;98441.89;;;20.63;91.31
60337;BME280;46978;50.288;28.624;2023-07-31T05:24:38;98442.23;;;20.58;90.36
60337;BME280;46978;50.288;28.624;2023-07-31T05:25:39;98448.67;;;20.54;90.91
60337;BME280;46978;50.288;28.624;2023-07-31T05:26:41;98449.42;;;20.56;92.13